Time;durP1;ratioP1;P1;durP2;ratioP2;P2;SDS_P1;SDS_P2;PMS_P1;PMS_P2;Temp;Humidity;BMP_temperature;BMP_pressure;BME280_temperature;BME280_humidity;BME280_pressure;Samples;Min_cycle;Max_cycle;Signal;HPM_P1;HPM_P2
2021/09/18 00:00:44;3534.00;0.01;6.75;0.00;0.00;0.62;;;;;19.50;1.00;;;;;;2594537;55;934;-85
2021/09/18 00:03:12;0.00;0.00;0.62;0.00;0.00;0.62;;;;;19.40;1.00;;;;;;2578303;55;906;-85
2021/09/18 00:05:39;142200.00;0.47;246.36;813.00;0.00;2.03;;;;;19.10;1.00;;;;;;2567900;56;1291;-84
2021/09/18 00:08:05;117066.00;0.39;203.02;0.00;0.00;0.62;;;;;18.50;1.00;;;;;;2559393;56;955;-83
2021/09/18 00:10:34;47668.00;0.16;83.15;0.00;0.00;0.62;;;;;18.30;1.00;;;;;;2567933;56;1048;-84
2021/09/18 00:13:01;99234.00;0.33;172.25;0.00;0.00;0.62;;;;;17.90;1.00;;;;;;2568038;56;1950;-84
2021/09/18 00:15:30;0.00;0.00;0.62;0.00;0.00;0.62;;;;;18.00;1.00;;;;;;2567980;56;1347;-84
2021/09/18 00:17:57;24154.00;0.08;42.46;0.00;0.00;0.62;;;;;18.20;1.00;;;;;;2568046;56;967;-85
2021/09/18 00:20:24;85301.00;0.28;148.19;0.00;0.00;0.62;;;;;18.60;1.00;;;;;;2569325;55;994;-84
2021/09/18 00:22:51;67051.00;0.22;116.66;0.00;0.00;0.62;;;;;19.00;1.30;;;;;;2575911;55;1005;-84
2021/09/18 00:25:18;100093.00;0.33;173.73;0.00;0.00;0.62;;;;;19.10;1.00;;;;;;2578172;55;1291;-84
2021/09/18 00:27:46;0.00;0.00;0.62;0.00;0.00;0.62;;;;;19.10;1.00;;;;;;2569653;55;1002;-85
2021/09/18 00:30:13;119489.00;0.40;207.20;31205.00;0.10;54.67;;;;;19.00;1.00;;;;;;2578366;55;1045;-85
2021/09/18 00:32:40;108450.00;0.36;188.16;0.00;0.00;0.62;;;;;18.80;1.00;;;;;;2567861;56;1961;-84
2021/09/18 00:35:08;0.00;0.00;0.62;0.00;0.00;0.62;;;;;18.70;1.00;;;;;;2562716;56;1626;-85
2021/09/18 00:37:36;0.00;0.00;0.62;0.00;0.00;0.62;;;;;18.80;1.00;;;;;;2557661;56;1006;-85
2021/09/18 00:40:04;0.00;0.00;0.62;0.00;0.00;0.62;;;;;19.00;1.00;;;;;;2549197;56;1107;-85
2021/09/18 00:42:30;20254.00;0.07;35.71;0.00;0.00;0.62;;;;;19.10;1.00;;;;;;2558964;55;1022;-85
2021/09/18 00:44:59;0.00;0.00;0.62;0.00;0.00;0.62;;;;;19.10;1.00;;;;;;2557590;56;1358;-85
2021/09/18 00:47:26;27091.00;0.09;47.55;0.00;0.00;0.62;;;;;19.00;1.00;;;;;;2557743;56;1012;-85
2021/09/18 00:49:53;247265.00;0.82;427.25;114064.00;0.38;197.84;;;;;18.90;1.00;;;;;;2555452;56;1158;-85
2021/09/18 00:52:20;127339.00;0.42;220.74;29700.00;0.10;52.06;;;;;18.80;1.00;;;;;;2554275;56;1911;-85
2021/09/18 00:54:47;0.00;0.00;0.62;0.00;0.00;0.62;;;;;18.50;1.00;;;;;;2552494;56;1619;-85
2021/09/18 00:57:15;308675.00;1.03;532.83;56150.00;0.19;97.82;;;;;18.50;1.00;;;;;;2552515;56;1579;-84
2021/09/18 00:59:43;3037.00;0.01;5.88;0.00;0.00;0.62;;;;;18.80;1.00;;;;;;2552621;56;934;-85
2021/09/18 01:02:12;49404.00;0.16;86.16;0.00;0.00;0.62;;;;;18.70;1.00;;;;;;2553894;56;950;-85
2021/09/18 01:04:39;152282.00;0.51;263.74;46632.00;0.16;81.36;;;;;18.60;1.00;;;;;;2562808;56;1281;-85
2021/09/18 01:07:07;110810.00;0.37;192.23;0.00;0.00;0.62;;;;;18.60;1.00;;;;;;2559720;56;1047;-85
2021/09/18 01:09:35;0.00;0.00;0.62;0.00;0.00;0.62;;;;;18.50;1.00;;;;;;2563575;56;998;-84
2021/09/18 01:12:05;0.00;0.00;0.62;0.00;0.00;0.62;;;;;18.70;1.00;;;;;;2559995;55;1902;-85
2021/09/18 01:14:33;0.00;0.00;0.62;0.00;0.00;0.62;;;;;18.90;1.00;;;;;;2575789;55;975;-85
2021/09/18 01:17:01;0.00;0.00;0.62;0.00;0.00;0.62;;;;;19.10;1.00;;;;;;2573046;55;1010;-86
2021/09/18 01:19:29;0.00;0.00;0.62;0.00;0.00;0.62;;;;;18.80;1.00;;;;;;2573130;55;964;-85
2021/09/18 01:21:57;0.00;0.00;0.62;0.00;0.00;0.62;;;;;18.70;1.00;;;;;;2573112;55;979;-85
2021/09/18 01:24:25;102227.00;0.34;177.42;12583.00;0.04;22.42;;;;;18.70;1.00;;;;;;2568774;55;1001;-86
2021/09/18 01:26:53;0.00;0.00;0.62;0.00;0.00;0.62;;;;;18.50;1.00;;;;;;2573139;55;1359;-85
2021/09/18 01:29:19;0.00;0.00;0.62;0.00;0.00;0.62;;;;;18.30;1.00;;;;;;2573195;55;978;-85
2021/09/18 01:31:48;82654.00;0.28;143.62;7392.00;0.02;13.43;;;;;18.60;1.00;;;;;;2570923;56;1053;-85
2021/09/18 01:34:17;138764.00;0.46;240.44;0.00;0.00;0.62;;;;;18.50;1.00;;;;;;2572990;55;1966;-85
2021/09/18 01:36:44;0.00;0.00;0.62;0.00;0.00;0.62;;;;;18.80;1.00;;;;;;2573022;55;1315;-86
2021/09/18 01:39:12;27402.00;0.09;48.09;0.00;0.00;0.62;;;;;18.70;1.00;;;;;;2573198;55;991;-85
2021/09/18 01:41:41;73778.00;0.25;128.29;0.00;0.00;0.62;;;;;18.70;1.00;;;;;;2573135;55;1005;-85
2021/09/18 01:44:09;0.00;0.00;0.62;0.00;0.00;0.62;;;;;18.60;1.00;;;;;;2562723;56;946;-84
2021/09/18 01:46:36;43326.00;0.14;75.64;0.00;0.00;0.62;;;;;18.40;1.00;;;;;;2562841;56;1339;-85
2021/09/18 01:49:03;0.00;0.00;0.62;0.00;0.00;0.62;;;;;17.90;1.00;;;;;;2562732;56;1012;-85
2021/09/18 01:51:32;0.00;0.00;0.62;0.00;0.00;0.62;;;;;18.00;1.00;;;;;;2562880;56;1001;-85
2021/09/18 01:53:59;0.00;0.00;0.62;0.00;0.00;0.62;;;;;18.20;1.00;;;;;;2554622;56;2000;-85
2021/09/18 01:56:27;141042.00;0.47;244.37;0.00;0.00;0.62;;;;;18.10;1.00;;;;;;2562758;56;1387;-85
2021/09/18 01:58:55;30948.00;0.10;54.22;0.00;0.00;0.62;;;;;18.10;1.00;;;;;;2562848;56;924;-85
2021/09/18 02:01:22;0.00;0.00;0.62;0.00;0.00;0.62;;;;;18.60;1.40;;;;;;2561356;56;999;-86
2021/09/18 02:03:49;71649.00;0.24;124.61;0.00;0.00;0.62;;;;;18.70;1.00;;;;;;2565788;56;1051;-85
2021/09/18 02:06:16;0.00;0.00;0.62;0.00;0.00;0.62;;;;;18.40;1.00;;;;;;2569102;56;1279;-85
2021/09/18 02:08:43;0.00;0.00;0.62;0.00;0.00;0.62;;;;;18.50;1.00;;;;;;2570942;56;1101;-84
2021/09/18 02:11:10;0.00;0.00;0.62;0.00;0.00;0.62;;;;;18.70;1.50;;;;;;2565085;55;1019;-85
2021/09/18 02:13:37;0.00;0.00;0.62;0.00;0.00;0.62;;;;;19.00;1.00;;;;;;2575108;55;1952;-85
2021/09/18 02:16:06;0.00;0.00;0.62;0.00;0.00;0.62;;;;;19.20;1.00;;;;;;2586756;55;1311;-85
2021/09/18 02:18:33;383264.00;1.28;661.04;138426.00;0.46;239.86;;;;;18.80;1.00;;;;;;2578205;55;944;-85
2021/09/18 02:21:00;190811.00;0.64;330.10;37261.00;0.12;65.15;;;;;18.60;1.00;;;;;;2567865;55;946;-86
2021/09/18 02:23:26;0.00;0.00;0.62;0.00;0.00;0.62;;;;;18.30;1.00;;;;;;2562688;56;966;-85
2021/09/18 02:25:53;8708.00;0.03;15.71;0.00;0.00;0.62;;;;;17.80;1.00;;;;;;2554190;56;1424;-85
2021/09/18 02:28:20;16498.00;0.05;29.21;0.00;0.00;0.62;;;;;17.30;1.00;;;;;;2552496;56;948;-84
2021/09/18 02:30:47;0.00;0.00;0.62;0.00;0.00;0.62;;;;;16.80;1.00;;;;;;2539853;56;1025;-85
2021/09/18 02:33:16;8027.00;0.03;14.53;0.00;0.00;0.62;;;;;16.40;1.00;;;;;;2550283;56;1956;-84
2021/09/18 02:35:43;29772.00;0.10;52.19;0.00;0.00;0.62;;;;;15.90;1.00;;;;;;2549231;56;1421;-84
2021/09/18 02:38:10;0.00;0.00;0.62;0.00;0.00;0.62;;;;;15.90;1.00;;;;;;2563314;56;983;-84
2021/09/18 02:40:39;0.00;0.00;0.62;0.00;0.00;0.62;;;;;15.90;1.00;;;;;;2568979;55;989;-84
2021/09/18 02:43:07;0.00;0.00;0.62;0.00;0.00;0.62;;;;;15.80;1.00;;;;;;2575431;55;1077;-84
2021/09/18 02:45:34;0.00;0.00;0.62;0.00;0.00;0.62;;;;;15.90;1.00;;;;;;2577337;55;1318;-85
2021/09/18 02:48:01;18138.00;0.06;32.05;0.00;0.00;0.62;;;;;16.00;1.00;;;;;;2575700;55;974;-85
2021/09/18 02:50:29;50853.00;0.17;88.66;0.00;0.00;0.62;;;;;16.00;1.00;;;;;;2580016;55;942;-84
2021/09/18 02:52:56;246805.00;0.82;426.46;33876.00;0.11;59.29;;;;;16.00;1.00;;;;;;2573700;55;1960;-85
2021/09/18 02:55:23;6667.00;0.02;12.17;0.00;0.00;0.62;;;;;15.80;1.00;;;;;;2589083;55;1339;-85
2021/09/18 02:57:50;9886.00;0.03;17.75;0.00;0.00;0.62;;;;;15.80;1.00;;;;;;2586730;55;1153;-85
2021/09/18 03:00:18;187324.00;0.62;324.10;48765.00;0.16;85.05;;;;;15.50;1.00;;;;;;2589135;55;957;-84
2021/09/18 03:02:45;0.00;0.00;0.62;0.00;0.00;0.62;;;;;15.60;1.00;;;;;;2586813;55;1033;-85
2021/09/18 03:05:14;24694.00;0.08;43.40;0.00;0.00;0.62;;;;;15.90;2.60;;;;;;2580716;55;1390;-84
2021/09/18 03:07:42;530590.00;1.77;914.51;187509.00;0.63;324.42;;;;;15.80;1.00;;;;;;2584860;55;958;-84
2021/09/18 03:10:11;21080.00;0.07;37.14;0.00;0.00;0.62;;;;;15.90;1.00;;;;;;2593764;55;1041;-84
2021/09/18 03:12:38;0.00;0.00;0.62;0.00;0.00;0.62;;;;;16.30;1.20;;;;;;2579903;55;1979;-84
2021/09/18 03:15:07;0.00;0.00;0.62;0.00;0.00;0.62;;;;;16.60;1.40;;;;;;2581905;55;1517;-85
2021/09/18 03:17:34;34606.00;0.12;60.55;0.00;0.00;0.62;;;;;16.80;1.00;;;;;;2593735;55;947;-84
2021/09/18 03:20:02;105912.00;0.35;183.78;0.00;0.00;0.62;;;;;17.00;1.00;;;;;;2584256;55;981;-85
2021/09/18 03:22:29;109713.00;0.37;190.33;0.00;0.00;0.62;;;;;16.70;1.00;;;;;;2592501;55;961;-84
2021/09/18 03:24:57;62017.00;0.21;107.96;0.00;0.00;0.62;;;;;16.40;1.00;;;;;;2585069;55;1348;-84
2021/09/18 03:27:24;0.00;0.00;0.62;0.00;0.00;0.62;;;;;16.10;1.00;;;;;;2583237;55;987;-85
2021/09/18 03:29:50;6195.00;0.02;11.36;0.00;0.00;0.62;;;;;15.90;1.00;;;;;;2572871;55;1025;-85
2021/09/18 03:32:17;8413.00;0.03;15.20;0.00;0.00;0.62;;;;;15.90;1.00;;;;;;2573004;55;1030;-85
2021/09/18 03:34:44;0.00;0.00;0.62;0.00;0.00;0.62;;;;;15.50;1.00;;;;;;2568478;55;1962;-84
2021/09/18 03:37:11;12286.00;0.04;21.91;0.00;0.00;0.62;;;;;15.10;1.00;;;;;;2567797;56;984;-85
2021/09/18 03:39:38;0.00;0.00;0.62;0.00;0.00;0.62;;;;;14.90;2.40;;;;;;2563449;56;993;-86
2021/09/18 03:42:06;132821.00;0.44;230.19;36107.00;0.12;63.15;;;;;14.60;2.10;;;;;;2567730;55;1044;-86
2021/09/18 03:44:33;13067.00;0.04;23.26;0.00;0.00;0.62;;;;;14.30;2.90;;;;;;2563602;56;1067;-86
2021/09/18 03:47:00;10119.00;0.03;18.16;0.00;0.00;0.62;;;;;14.00;3.30;;;;;;2558802;56;993;-86
2021/09/18 03:49:27;16718.00;0.06;29.59;0.00;0.00;0.62;;;;;14.10;3.60;;;;;;2563758;56;1004;-87
2021/09/18 03:51:54;8143.00;0.03;14.73;0.00;0.00;0.62;;;;;13.80;4.20;;;;;;2567937;55;1053;-85
2021/09/18 03:54:21;252790.00;0.84;436.75;17486.00;0.06;30.92;;;;;13.60;3.90;;;;;;2569123;55;1949;-87
2021/09/18 03:56:48;112139.00;0.37;194.52;0.00;0.00;0.62;;;;;13.70;4.60;;;;;;2562814;56;1360;-86
2021/09/18 03:59:16;104672.00;0.35;181.64;36390.00;0.12;63.64;;;;;13.80;5.40;;;;;;2561621;56;1067;-87
2021/09/18 04:01:43;129667.00;0.43;224.76;4410.00;0.01;8.26;;;;;13.80;4.40;;;;;;2557731;56;946;-87
2021/09/18 04:04:10;1495.00;0.00;3.21;0.00;0.00;0.62;;;;;13.60;3.40;;;;;;2545632;56;1035;-87
2021/09/18 04:06:37;107683.00;0.36;186.83;0.00;0.00;0.62;;;;;13.40;5.00;;;;;;2562971;56;1428;-84
2021/09/18 04:09:04;17403.00;0.06;30.77;0.00;0.00;0.62;;;;;13.50;6.60;;;;;;2562828;56;909;-84
2021/09/18 04:11:31;163746.00;0.55;283.49;19967.00;0.07;35.21;;;;;13.20;6.60;;;;;;2550125;56;987;-84
2021/09/18 04:13:58;0.00;0.00;0.62;0.00;0.00;0.62;;;;;13.40;4.60;;;;;;2549109;56;1905;-86
2021/09/18 04:16:26;0.00;0.00;0.62;0.00;0.00;0.62;;;;;13.40;6.00;;;;;;2550062;56;1298;-86
2021/09/18 04:18:53;0.00;0.00;0.62;0.00;0.00;0.62;;;;;13.70;3.90;;;;;;2561272;56;1154;-87
2021/09/18 04:21:20;0.00;0.00;0.62;0.00;0.00;0.62;;;;;13.70;3.90;;;;;;2565878;56;1047;-86
2021/09/18 04:23:47;0.00;0.00;0.62;0.00;0.00;0.62;;;;;13.60;4.10;;;;;;2559423;56;970;-85
2021/09/18 04:26:14;0.00;0.00;0.62;0.00;0.00;0.62;;;;;13.50;5.40;;;;;;2559888;55;1308;-86
2021/09/18 04:28:41;0.00;0.00;0.62;0.00;0.00;0.62;;;;;13.30;6.40;;;;;;2570606;55;938;-86
2021/09/18 04:31:08;0.00;0.00;0.62;0.00;0.00;0.62;;;;;13.40;6.00;;;;;;2578588;55;954;-87
2021/09/18 04:33:36;39514.00;0.13;69.05;0.00;0.00;0.62;;;;;13.50;4.50;;;;;;2576231;55;1944;-86
2021/09/18 04:36:04;38731.00;0.13;67.69;0.00;0.00;0.62;;;;;13.80;4.30;;;;;;2581044;55;1283;-87
2021/09/18 04:38:31;75968.00;0.25;132.07;0.00;0.00;0.62;;;;;14.20;4.10;;;;;;2583176;55;912;-85
2021/09/18 04:40:58;0.00;0.00;0.62;0.00;0.00;0.62;;;;;14.40;3.50;;;;;;2580848;55;978;-86
2021/09/18 04:43:25;0.00;0.00;0.62;0.00;0.00;0.62;;;;;14.70;2.90;;;;;;2593545;55;963;-87
2021/09/18 04:45:52;6823.00;0.02;12.44;0.00;0.00;0.62;;;;;15.00;1.20;;;;;;2594459;55;1403;-86
2021/09/18 04:48:19;3113.00;0.01;6.02;0.00;0.00;0.62;;;;;15.10;1.00;;;;;;2591906;55;1029;-86
2021/09/18 04:50:48;0.00;0.00;0.62;0.00;0.00;0.62;;;;;14.90;1.00;;;;;;2581581;55;1043;-86
2021/09/18 04:53:15;9010.00;0.03;16.23;0.00;0.00;0.62;;;;;15.00;1.90;;;;;;2583541;55;1949;-86
2021/09/18 04:55:42;21768.00;0.07;38.33;0.00;0.00;0.62;;;;;14.90;1.00;;;;;;2572965;55;1352;-86
2021/09/18 04:58:09;0.00;0.00;0.62;0.00;0.00;0.62;;;;;14.60;1.10;;;;;;2563244;55;1046;-87
2021/09/18 05:00:36;0.00;0.00;0.62;0.00;0.00;0.62;;;;;14.20;1.90;;;;;;2573056;55;969;-85
2021/09/18 05:03:03;0.00;0.00;0.62;0.00;0.00;0.62;;;;;14.30;3.40;;;;;;2571004;55;1072;-86
2021/09/18 05:05:30;25500.00;0.09;44.79;0.00;0.00;0.62;;;;;14.80;2.50;;;;;;2566302;56;1316;-86
2021/09/18 05:07:58;0.00;0.00;0.62;0.00;0.00;0.62;;;;;15.00;1.80;;;;;;2566245;56;1040;-86
2021/09/18 05:10:25;0.00;0.00;0.62;0.00;0.00;0.62;;;;;14.90;1.00;;;;;;2564500;55;914;-86
2021/09/18 05:12:52;22364.00;0.07;39.36;0.00;0.00;0.62;;;;;15.00;1.00;;;;;;2569306;55;937;-86
2021/09/18 05:15:19;0.00;0.00;0.62;0.00;0.00;0.62;;;;;15.20;1.00;;;;;;2578291;55;1909;-86
2021/09/18 05:17:46;103325.00;0.34;179.31;26085.00;0.09;45.81;;;;;15.10;1.80;;;;;;2569609;55;1003;-86
2021/09/18 05:20:13;0.00;0.00;0.62;0.00;0.00;0.62;;;;;15.30;1.00;;;;;;2578369;55;1043;-86
2021/09/18 05:22:40;0.00;0.00;0.62;0.00;0.00;0.62;;;;;15.40;1.00;;;;;;2575663;55;996;-86
2021/09/18 05:25:09;0.00;0.00;0.62;0.00;0.00;0.62;;;;;15.40;1.80;;;;;;2594403;55;1309;-87
2021/09/18 05:27:36;102110.00;0.34;177.21;3777.00;0.01;7.17;;;;;15.70;1.90;;;;;;2594372;55;773;-85
2021/09/18 05:30:04;0.00;0.00;0.62;0.00;0.00;0.62;;;;;15.80;1.00;;;;;;2592309;55;1018;-84
2021/09/18 05:32:31;67337.00;0.22;117.16;0.00;0.00;0.62;;;;;16.00;2.70;;;;;;2585233;55;941;-84
2021/09/18 05:34:58;27525.00;0.09;48.30;0.00;0.00;0.62;;;;;16.40;3.60;;;;;;2594327;55;1902;-85
2021/09/18 05:37:26;8627.00;0.03;15.57;0.00;0.00;0.62;;;;;16.80;1.00;;;;;;2594421;55;1001;-84
2021/09/18 05:39:53;18519.00;0.06;32.71;0.00;0.00;0.62;;;;;17.10;1.00;;;;;;2584159;55;1000;-85
2021/09/18 05:42:21;0.00;0.00;0.62;0.00;0.00;0.62;;;;;17.90;1.00;;;;;;2585228;55;1005;-85
2021/09/18 05:44:48;20440.00;0.07;36.03;0.00;0.00;0.62;;;;;18.70;1.00;;;;;;2592830;55;1323;-84
2021/09/18 05:47:15;0.00;0.00;0.62;0.00;0.00;0.62;;;;;19.30;1.00;;;;;;2577660;55;981;-85
2021/09/18 05:49:42;0.00;0.00;0.62;0.00;0.00;0.62;;;;;20.00;1.00;;;;;;2590062;55;1044;-85
2021/09/18 06:00:27;182426.00;0.61;315.67;93140.00;0.31;161.73;;;;;20.30;1.00;;;;;;2592071;55;723;-84
2021/09/18 06:02:54;247867.00;0.83;428.28;81653.00;0.27;141.89;;;;;19.80;1.00;;;;;;2585110;55;974;-84
2021/09/18 06:05:21;223208.00;0.74;385.86;77533.00;0.26;134.78;;;;;19.40;1.00;;;;;;2578134;55;1370;-84
2021/09/18 06:07:48;348305.00;1.16;600.95;79334.00;0.26;137.89;;;;;19.40;1.00;;;;;;2569514;55;1000;-84
2021/09/18 06:10:15;203650.00;0.68;352.21;76295.00;0.25;132.64;;;;;19.70;1.00;;;;;;2573843;55;1012;-85
2021/09/18 06:12:42;211854.00;0.71;366.33;82367.00;0.27;143.13;;;;;20.70;1.00;;;;;;2567813;56;1020;-85
2021/09/18 06:15:10;197990.00;0.66;342.46;74248.00;0.25;129.10;;;;;21.90;1.00;;;;;;2563516;56;1973;-85
2021/09/18 06:17:38;175375.00;0.58;303.52;81857.00;0.27;142.24;;;;;22.80;1.00;;;;;;2567998;56;958;-85
2021/09/18 06:20:06;204128.00;0.68;353.03;78555.00;0.26;136.54;;;;;23.70;1.00;;;;;;2559308;56;978;-84
2021/09/18 06:22:33;212690.00;0.71;367.76;81607.00;0.27;141.81;;;;;23.90;1.00;;;;;;2561081;55;962;-85
2021/09/18 06:25:00;272842.00;0.91;471.23;79011.00;0.26;137.33;;;;;24.10;1.00;;;;;;2570212;55;1407;-86
2021/09/18 06:27:27;195806.00;0.65;338.70;78389.00;0.26;136.25;;;;;24.50;1.00;;;;;;2573010;55;946;-86
2021/09/18 06:29:54;208000.00;0.69;359.69;75345.00;0.25;131.00;;;;;24.90;1.00;;;;;;2569297;55;936;-85
2021/09/18 06:32:21;206769.00;0.69;357.57;76641.00;0.26;133.23;;;;;25.20;1.00;;;;;;2578326;55;1001;-85
2021/09/18 06:34:49;230199.00;0.77;397.89;69615.00;0.23;121.10;;;;;24.80;1.00;;;;;;2573735;55;1945;-85
2021/09/18 06:37:16;171173.00;0.57;296.29;76185.00;0.25;132.45;;;;;24.80;1.00;;;;;;2578287;55;892;-85
2021/09/18 06:39:43;245534.00;0.82;424.27;78211.00;0.26;135.95;;;;;24.80;1.00;;;;;;2569584;55;928;-86
2021/09/18 06:42:10;185915.00;0.62;321.68;73600.00;0.25;127.98;;;;;24.60;1.00;;;;;;2569538;55;1019;-85
2021/09/18 06:44:38;214819.00;0.72;371.43;78195.00;0.26;135.92;;;;;24.10;1.00;;;;;;2571202;55;1346;-86
2021/09/18 06:47:05;209199.00;0.70;361.76;71455.00;0.24;124.27;;;;;24.00;1.00;;;;;;2594508;55;886;-86
2021/09/18 06:49:32;177051.00;0.59;306.41;78073.00;0.26;135.71;;;;;24.40;1.00;;;;;;2594274;55;992;-84
2021/09/18 06:52:01;170245.00;0.57;294.69;73376.00;0.24;127.59;;;;;24.80;1.00;;;;;;2585007;55;945;-85
2021/09/18 06:54:28;253972.00;0.85;438.78;73913.00;0.25;128.52;;;;;25.30;1.00;;;;;;2592133;55;1901;-86
2021/09/18 06:56:54;186155.00;0.62;322.09;71933.00;0.24;125.10;;;;;25.30;1.00;;;;;;2580809;55;1281;-86
2021/09/18 06:59:21;194399.00;0.65;336.28;80525.00;0.27;139.94;;;;;24.40;1.00;;;;;;2591874;55;1045;-85
2021/09/18 07:01:50;183569.00;0.61;317.64;79701.00;0.27;138.52;;;;;23.90;1.00;;;;;;2580741;55;1070;-85
2021/09/18 07:04:18;353564.00;1.18;609.99;186393.00;0.62;322.50;;;;;24.30;1.00;;;;;;2594300;55;996;-85
2021/09/18 07:06:45;118218408.00;394.06;66925560.00;80265.00;0.27;139.50;;;;;24.40;1.00;;;;;;2584980;55;1420;-85
2021/09/18 07:09:13;337583.00;1.13;582.52;72026.00;0.24;125.26;;;;;24.40;1.00;;;;;;2583248;55;923;-85
2021/09/18 07:11:40;229196.00;0.76;396.17;78606.00;0.26;136.63;;;;;24.90;1.00;;;;;;2574567;55;1062;-85
2021/09/18 07:14:07;253546.00;0.85;438.05;82489.00;0.27;143.34;;;;;24.30;1.00;;;;;;2583155;55;1894;-85
2021/09/18 07:16:34;209226.00;0.70;361.80;72180.00;0.24;125.53;;;;;24.90;1.00;;;;;;2583391;55;1418;-85
2021/09/18 07:19:01;208731.00;0.70;360.95;81220.00;0.27;141.14;;;;;24.90;1.00;;;;;;2574771;55;1055;-85
2021/09/18 07:21:28;218530.00;0.73;377.81;72642.00;0.24;126.33;;;;;24.60;1.00;;;;;;2573097;55;934;-85
2021/09/18 07:23:55;172149.00;0.57;297.97;73216.00;0.24;127.32;;;;;25.30;1.00;;;;;;2573281;55;967;-84
2021/09/18 07:26:24;244444.00;0.81;422.40;74453.00;0.25;129.45;;;;;25.50;1.00;;;;;;2573635;55;1423;-85
2021/09/18 07:28:51;169280.00;0.56;293.03;80979.00;0.27;140.73;;;;;25.70;1.00;;;;;;2569633;55;904;-85
2021/09/18 07:31:19;177353.00;0.59;306.93;85199.00;0.28;148.02;;;;;26.00;1.00;;;;;;2578101;55;1116;-89
2021/09/18 07:33:46;166269.00;0.55;287.84;74375.00;0.25;129.32;;;;;25.80;1.00;;;;;;2567814;55;1952;-88
2021/09/18 07:36:13;173513.00;0.58;300.32;76139.00;0.25;132.37;;;;;24.50;1.00;;;;;;2567989;55;1385;-88
2021/09/18 07:38:40;174101.00;0.58;301.33;73706.00;0.25;128.16;;;;;24.20;1.00;;;;;;2563635;55;912;-88
2021/09/18 07:41:07;204245.00;0.68;353.23;61894.00;0.21;107.75;;;;;23.60;1.00;;;;;;2564407;55;997;-88
2021/09/18 07:43:35;304392.00;1.01;525.47;82386.00;0.27;143.16;;;;;23.10;1.00;;;;;;2573091;55;990;-89
2021/09/18 07:46:02;170715.00;0.57;295.50;77006.00;0.26;133.87;;;;;23.70;1.00;;;;;;2568666;55;1415;-90
2021/09/18 07:48:30;201473.00;0.67;348.46;73537.00;0.25;127.87;;;;;24.10;1.00;;;;;;2567862;56;935;-87
2021/09/18 07:50:57;168664.00;0.56;291.97;73922.00;0.25;128.54;;;;;24.90;1.00;;;;;;2569040;55;957;-89
2021/09/18 07:53:24;172331.00;0.57;298.28;76086.00;0.25;132.28;;;;;24.60;1.00;;;;;;2578327;55;937;-89
2021/09/18 07:55:51;305333.00;1.02;527.09;67310.00;0.22;117.11;;;;;24.60;1.00;;;;;;2568415;55;1964;-90
2021/09/18 07:58:18;216762.00;0.72;374.77;76485.00;0.25;132.97;;;;;24.90;1.00;;;;;;2568717;55;956;-90
2021/09/18 08:00:48;172477.00;0.57;298.53;83556.00;0.28;145.18;;;;;25.40;1.00;;;;;;2570471;56;1140;-89
2021/09/18 08:03:15;169163.00;0.56;292.82;59004.00;0.20;102.75;;;;;24.50;1.00;;;;;;2564475;55;955;-90
2021/09/18 08:05:42;205818.00;0.69;355.94;74320.00;0.25;129.22;;;;;24.30;1.00;;;;;;2569968;55;1373;-88
2021/09/18 08:08:12;168615.00;0.56;291.88;73712.00;0.25;128.17;;;;;23.60;1.00;;;;;;2583530;55;998;-89
2021/09/18 08:10:39;167617.00;0.56;290.16;69276.00;0.23;120.51;;;;;23.70;1.00;;;;;;2574673;55;914;-88
2021/09/18 08:13:06;184896.00;0.62;319.92;64323.00;0.21;111.95;;;;;24.60;1.00;;;;;;2580551;55;979;-87
2021/09/18 08:15:33;169125.00;0.56;292.76;72570.00;0.24;126.20;;;;;24.80;1.00;;;;;;2594330;55;1937;-87
2021/09/18 08:18:03;352223.00;1.17;607.68;74701.00;0.25;129.88;;;;;24.60;1.00;;;;;;2578262;55;1006;-89
2021/09/18 08:20:30;215728.00;0.72;372.99;72185.00;0.24;125.54;;;;;24.20;1.00;;;;;;2573843;55;976;-88
2021/09/18 08:22:57;168050.00;0.56;290.91;74916.00;0.25;130.25;;;;;24.50;1.00;;;;;;2573895;55;939;-89
2021/09/18 08:25:23;198063.00;0.66;342.59;68605.00;0.23;119.35;;;;;24.20;1.00;;;;;;2573838;55;1356;-88
2021/09/18 08:27:50;176274.00;0.59;305.07;73099.00;0.24;127.12;;;;;23.30;1.00;;;;;;2573048;55;981;-88
2021/09/18 08:30:18;341756.00;1.14;589.69;99433.00;0.33;172.59;;;;;24.10;1.00;;;;;;2573000;55;984;-89
2021/09/18 08:32:45;172314.00;0.57;298.25;76653.00;0.26;133.26;;;;;23.80;1.00;;;;;;2564341;55;988;-87
2021/09/18 08:35:14;195768.00;0.65;338.64;80025.00;0.27;139.08;;;;;24.10;1.00;;;;;;2568235;55;1955;-89
2021/09/18 08:37:42;159561.00;0.53;276.28;68382.00;0.23;118.96;;;;;24.40;1.00;;;;;;2562716;56;929;-88
2021/09/18 08:40:11;212022.00;0.71;366.62;79359.00;0.26;137.93;;;;;24.70;1.00;;;;;;2558386;56;964;-87
2021/09/18 08:42:41;247277.00;0.82;427.27;72353.00;0.24;125.83;;;;;23.80;1.00;;;;;;2557581;56;963;-88
2021/09/18 08:45:11;273916.00;0.91;473.08;69628.00;0.23;121.12;;;;;24.00;1.00;;;;;;2550569;55;1396;-88
2021/09/18 08:47:42;262837.00;0.88;454.03;75896.00;0.25;131.95;;;;;24.50;1.00;;;;;;2562647;55;921;-88
2021/09/18 08:50:13;165998.00;0.55;287.37;79176.00;0.26;137.61;;;;;24.10;1.00;;;;;;2558471;55;946;-88
2021/09/18 08:52:42;165506.00;0.55;286.53;69024.00;0.23;120.07;;;;;23.60;1.00;;;;;;2559539;56;963;-87
2021/09/18 08:55:09;202980.00;0.68;351.05;82199.00;0.27;142.84;;;;;23.40;1.00;;;;;;2571270;55;1952;-88
2021/09/18 08:57:36;255700.00;0.85;441.75;76759.00;0.26;133.44;;;;;23.50;1.00;;;;;;2574704;55;950;-89
2021/09/18 09:00:05;315699.00;1.05;544.91;125102.00;0.42;216.88;;;;;23.30;1.00;;;;;;2572489;55;1055;-89
2021/09/18 09:02:33;227233.00;0.76;392.79;73145.00;0.24;127.19;;;;;22.80;1.00;;;;;;2583366;55;1013;-88
2021/09/18 09:05:07;231203.00;0.77;399.62;69881.00;0.23;121.55;;;;;22.90;1.00;;;;;;2580856;55;1264;-88
2021/09/18 09:07:34;198330.00;0.66;343.05;75230.00;0.25;130.80;;;;;23.10;1.00;;;;;;2594393;55;1010;-89
2021/09/18 09:10:05;202028.00;0.67;349.41;80224.00;0.27;139.42;;;;;23.00;1.00;;;;;;2594377;55;1022;-89
2021/09/18 09:12:34;214180.00;0.71;370.33;78232.00;0.26;135.98;;;;;22.90;1.00;;;;;;2580949;55;1064;-88
2021/09/18 09:15:04;300374.00;1.00;518.56;83681.00;0.28;145.40;;;;;23.20;1.00;;;;;;2594358;55;1902;-87
2021/09/18 09:17:33;256238.00;0.85;442.68;64488.00;0.21;112.23;;;;;23.50;1.00;;;;;;2585183;55;989;-89
2021/09/18 09:20:01;305859.00;1.02;527.99;78094.00;0.26;135.74;;;;;23.50;1.00;;;;;;2594367;55;934;-89
2021/09/18 09:22:40;326973.00;1.09;564.28;75095.00;0.25;130.56;;;;;23.10;1.00;;;;;;2594352;55;1008;-88
2021/09/18 09:25:27;227176.00;0.76;392.69;86899.00;0.29;150.95;;;;;22.60;1.00;;;;;;2594342;55;1394;-88
2021/09/18 09:27:54;232209.00;0.77;401.35;68703.00;0.23;119.52;;;;;23.20;1.00;;;;;;2583265;55;941;-89
2021/09/18 09:30:30;208597.00;0.70;360.72;78564.00;0.26;136.56;;;;;23.20;1.00;;;;;;2578929;55;978;-88
2021/09/18 09:33:06;309703.00;1.03;534.60;69259.00;0.23;120.48;;;;;23.20;1.00;;;;;;2567841;55;965;-90
2021/09/18 09:35:34;119216.00;0.40;206.73;0.00;0.00;0.62;;;;;23.20;1.00;;;;;;2567878;55;1947;-89
2021/09/18 09:38:03;122053.00;0.41;211.62;0.00;0.00;0.62;;;;;22.90;1.00;;;;;;2563582;55;958;-90
2021/09/18 09:40:39;420982.00;1.40;725.88;31038.00;0.10;54.38;;;;;23.10;1.00;;;;;;2567720;55;961;-89
2021/09/18 09:43:08;355866.00;1.19;613.94;0.00;0.00;0.62;;;;;23.00;1.00;;;;;;2567786;55;1708;-89
2021/09/18 09:45:35;341713.00;1.14;589.62;116390.00;0.39;201.85;;;;;22.60;1.00;;;;;;2569306;55;1410;-87
2021/09/18 09:48:09;196131.00;0.65;339.26;0.00;0.00;0.62;;;;;22.50;1.00;;;;;;2573042;55;1069;-88
2021/09/18 09:50:37;33427.00;0.11;58.51;0.00;0.00;0.62;;;;;22.80;1.00;;;;;;2574611;55;959;-88
2021/09/18 09:53:05;130063.00;0.43;225.44;0.00;0.00;0.62;;;;;23.20;1.00;;;;;;2580330;55;1035;-88
2021/09/18 09:55:38;243965.00;0.81;421.57;0.00;0.00;0.62;;;;;23.20;1.00;;;;;;2583260;55;1951;-88
2021/09/18 09:58:07;163097.00;0.54;282.38;0.00;0.00;0.62;;;;;23.20;1.00;;;;;;2586303;55;996;-88
2021/09/18 10:00:42;187569.00;0.63;324.52;0.00;0.00;0.62;;;;;22.90;1.00;;;;;;2594262;55;981;-89
2021/09/18 10:03:11;93463.00;0.31;162.29;0.00;0.00;0.62;;;;;22.90;1.00;;;;;;2585147;55;933;-88
2021/09/18 10:05:38;45269.00;0.15;79.00;0.00;0.00;0.62;;;;;23.70;1.00;;;;;;2593561;55;1346;-89
2021/09/18 10:08:06;170315.00;0.57;294.81;0.00;0.00;0.62;;;;;23.40;1.00;;;;;;2578131;55;929;-90
2021/09/18 10:10:35;61221.00;0.20;106.59;0.00;0.00;0.62;;;;;23.70;1.00;;;;;;2569494;55;987;-90